sensor_id;sensor_type;location;lat;lon;timestamp;P1;durP1;ratioP1;P2;durP2;ratioP2
50363;SDS011;36272;59.400;17.982;2022-10-19T00:04:39;0.80;;;0.43;;
50363;SDS011;36272;59.400;17.982;2022-10-19T00:09:42;1.88;;;0.40;;
50363;SDS011;36272;59.400;17.982;2022-10-19T00:14:46;2.42;;;0.65;;
50363;SDS011;36272;59.400;17.982;2022-10-19T00:19:54;2.67;;;0.73;;
50363;SDS011;36272;59.400;17.982;2022-10-19T00:25:04;2.08;;;0.55;;
50363;SDS011;36272;59.400;17.982;2022-10-19T00:30:07;1.45;;;0.60;;
50363;SDS011;36272;59.400;17.982;2022-10-19T00:35:09;2.70;;;0.57;;
50363;SDS011;36272;59.400;17.982;2022-10-19T00:40:10;3.30;;;0.60;;
50363;SDS011;36272;59.400;17.982;2022-10-19T00:45:13;4.15;;;0.63;;
50363;SDS011;36272;59.400;17.982;2022-10-19T00:50:17;2.10;;;0.40;;
50363;SDS011;36272;59.400;17.982;2022-10-19T00:55:19;1.77;;;0.70;;
50363;SDS011;36272;59.400;17.982;2022-10-19T01:00:21;0.20;;;0.20;;
50363;SDS011;36272;59.400;17.982;2022-10-19T01:05:22;4.25;;;0.68;;
50363;SDS011;36272;59.400;17.982;2022-10-19T01:16:17;2.17;;;0.60;;
50363;SDS011;36272;59.400;17.982;2022-10-19T01:21:27;2.03;;;0.47;;
50363;SDS011;36272;59.400;17.982;2022-10-19T01:32:19;0.80;;;0.50;;
50363;SDS011;36272;59.400;17.982;2022-10-19T01:42:28;3.08;;;0.32;;
50363;SDS011;36272;59.400;17.982;2022-10-19T01:47:33;3.72;;;0.60;;
50363;SDS011;36272;59.400;17.982;2022-10-19T01:52:39;2.92;;;0.50;;
50363;SDS011;36272;59.400;17.982;2022-10-19T01:57:44;1.88;;;0.45;;
50363;SDS011;36272;59.400;17.982;2022-10-19T02:02:49;1.48;;;0.70;;
50363;SDS011;36272;59.400;17.982;2022-10-19T02:07:54;3.38;;;0.30;;
50363;SDS011;36272;59.400;17.982;2022-10-19T02:12:59;3.25;;;0.80;;
50363;SDS011;36272;59.400;17.982;2022-10-19T02:18:03;1.02;;;0.38;;
50363;SDS011;36272;59.400;17.982;2022-10-19T02:23:07;2.13;;;0.82;;
50363;SDS011;36272;59.400;17.982;2022-10-19T02:28:09;3.05;;;0.60;;
50363;SDS011;36272;59.400;17.982;2022-10-19T02:33:11;3.88;;;0.60;;
50363;SDS011;36272;59.400;17.982;2022-10-19T02:38:14;3.38;;;0.50;;
50363;SDS011;36272;59.400;17.982;2022-10-19T02:43:19;3.88;;;0.82;;
50363;SDS011;36272;59.400;17.982;2022-10-19T02:48:24;3.75;;;0.70;;
50363;SDS011;36272;59.400;17.982;2022-10-19T02:53:35;4.35;;;0.57;;
50363;SDS011;36272;59.400;17.982;2022-10-19T02:58:36;0.70;;;0.30;;
50363;SDS011;36272;59.400;17.982;2022-10-19T03:03:38;6.18;;;0.80;;
50363;SDS011;36272;59.400;17.982;2022-10-19T03:08:40;7.95;;;1.13;;
50363;SDS011;36272;59.400;17.982;2022-10-19T03:13:42;1.80;;;0.40;;
50363;SDS011;36272;59.400;17.982;2022-10-19T03:18:43;6.97;;;0.90;;
50363;SDS011;36272;59.400;17.982;2022-10-19T03:23:45;2.10;;;0.52;;
50363;SDS011;36272;59.400;17.982;2022-10-19T03:28:46;1.05;;;0.50;;
50363;SDS011;36272;59.400;17.982;2022-10-19T03:33:50;3.92;;;0.50;;
50363;SDS011;36272;59.400;17.982;2022-10-19T03:38:53;3.95;;;0.60;;
50363;SDS011;36272;59.400;17.982;2022-10-19T03:43:59;1.90;;;0.43;;
50363;SDS011;36272;59.400;17.982;2022-10-19T03:49:01;3.35;;;0.57;;
50363;SDS011;36272;59.400;17.982;2022-10-19T03:54:04;3.67;;;0.70;;
50363;SDS011;36272;59.400;17.982;2022-10-19T03:59:10;5.03;;;0.82;;
50363;SDS011;36272;59.400;17.982;2022-10-19T04:04:14;1.77;;;0.35;;
50363;SDS011;36272;59.400;17.982;2022-10-19T04:09:18;2.25;;;0.75;;
50363;SDS011;36272;59.400;17.982;2022-10-19T04:14:21;2.00;;;0.50;;
50363;SDS011;36272;59.400;17.982;2022-10-19T04:19:23;2.30;;;0.60;;
50363;SDS011;36272;59.400;17.982;2022-10-19T04:24:25;0.75;;;0.50;;
50363;SDS011;36272;59.400;17.982;2022-10-19T04:29:26;5.90;;;0.80;;
50363;SDS011;36272;59.400;17.982;2022-10-19T04:34:28;2.78;;;0.75;;
50363;SDS011;36272;59.400;17.982;2022-10-19T04:39:29;3.45;;;0.70;;
50363;SDS011;36272;59.400;17.982;2022-10-19T04:44:31;4.70;;;0.70;;
50363;SDS011;36272;59.400;17.982;2022-10-19T04:49:34;3.45;;;0.90;;
50363;SDS011;36272;59.400;17.982;2022-10-19T04:54:35;7.10;;;0.98;;
50363;SDS011;36272;59.400;17.982;2022-10-19T04:59:37;3.60;;;1.15;;
50363;SDS011;36272;59.400;17.982;2022-10-19T05:04:38;4.93;;;0.70;;
50363;SDS011;36272;59.400;17.982;2022-10-19T05:09:40;2.75;;;0.63;;
50363;SDS011;36272;59.400;17.982;2022-10-19T05:14:42;2.20;;;0.50;;
50363;SDS011;36272;59.400;17.982;2022-10-19T05:19:50;3.63;;;0.75;;
50363;SDS011;36272;59.400;17.982;2022-10-19T05:24:55;4.68;;;0.65;;
50363;SDS011;36272;59.400;17.982;2022-10-19T05:29:56;2.85;;;0.88;;
50363;SDS011;36272;59.400;17.982;2022-10-19T05:34:58;2.88;;;0.40;;
50363;SDS011;36272;59.400;17.982;2022-10-19T05:39:59;1.45;;;0.52;;
50363;SDS011;36272;59.400;17.982;2022-10-19T05:45:01;4.10;;;0.80;;
50363;SDS011;36272;59.400;17.982;2022-10-19T05:50:03;2.65;;;0.55;;
50363;SDS011;36272;59.400;17.982;2022-10-19T05:55:05;1.83;;;0.68;;
50363;SDS011;36272;59.400;17.982;2022-10-19T06:00:07;4.15;;;1.00;;
50363;SDS011;36272;59.400;17.982;2022-10-19T06:05:15;7.50;;;1.13;;
50363;SDS011;36272;59.400;17.982;2022-10-19T06:16:57;2.85;;;0.80;;
50363;SDS011;36272;59.400;17.982;2022-10-19T06:21:58;10.85;;;2.20;;
50363;SDS011;36272;59.400;17.982;2022-10-19T06:27:00;4.07;;;1.13;;
50363;SDS011;36272;59.400;17.982;2022-10-19T06:32:02;4.90;;;1.00;;
50363;SDS011;36272;59.400;17.982;2022-10-19T06:37:03;3.83;;;0.90;;
50363;SDS011;36272;59.400;17.982;2022-10-19T06:42:05;4.43;;;1.00;;
50363;SDS011;36272;59.400;17.982;2022-10-19T06:47:06;5.50;;;1.10;;
50363;SDS011;36272;59.400;17.982;2022-10-19T06:52:08;4.40;;;1.10;;
50363;SDS011;36272;59.400;17.982;2022-10-19T06:57:10;3.10;;;1.25;;
50363;SDS011;36272;59.400;17.982;2022-10-19T07:02:14;3.65;;;0.80;;
50363;SDS011;36272;59.400;17.982;2022-10-19T07:07:16;1.60;;;0.57;;
50363;SDS011;36272;59.400;17.982;2022-10-19T07:12:18;1.13;;;0.52;;
50363;SDS011;36272;59.400;17.982;2022-10-19T07:17:19;1.55;;;0.50;;
50363;SDS011;36272;59.400;17.982;2022-10-19T07:22:21;3.45;;;0.80;;
50363;SDS011;36272;59.400;17.982;2022-10-19T07:27:23;5.07;;;1.20;;
50363;SDS011;36272;59.400;17.982;2022-10-19T07:32:28;3.28;;;1.08;;
50363;SDS011;36272;59.400;17.982;2022-10-19T07:37:29;2.10;;;0.70;;
50363;SDS011;36272;59.400;17.982;2022-10-19T07:42:31;5.55;;;1.05;;
50363;SDS011;36272;59.400;17.982;2022-10-19T07:47:33;3.63;;;0.90;;
50363;SDS011;36272;59.400;17.982;2022-10-19T07:52:34;1.15;;;0.47;;
50363;SDS011;36272;59.400;17.982;2022-10-19T07:57:36;5.97;;;0.85;;
50363;SDS011;36272;59.400;17.982;2022-10-19T08:02:37;1.55;;;0.70;;
50363;SDS011;36272;59.400;17.982;2022-10-19T08:07:39;2.40;;;0.60;;
50363;SDS011;36272;59.400;17.982;2022-10-19T08:12:41;3.40;;;0.77;;
50363;SDS011;36272;59.400;17.982;2022-10-19T08:17:42;1.73;;;0.52;;
50363;SDS011;36272;59.400;17.982;2022-10-19T08:22:44;1.67;;;0.73;;
50363;SDS011;36272;59.400;17.982;2022-10-19T08:27:47;2.90;;;0.80;;
50363;SDS011;36272;59.400;17.982;2022-10-19T08:32:53;3.42;;;0.65;;
50363;SDS011;36272;59.400;17.982;2022-10-19T08:37:55;2.25;;;0.43;;
50363;SDS011;36272;59.400;17.982;2022-10-19T08:43:02;5.65;;;0.80;;
50363;SDS011;36272;59.400;17.982;2022-10-19T08:48:21;2.53;;;0.63;;
50363;SDS011;36272;59.400;17.982;2022-10-19T08:53:34;3.25;;;0.93;;
50363;SDS011;36272;59.400;17.982;2022-10-19T09:09:29;4.35;;;0.85;;
50363;SDS011;36272;59.400;17.982;2022-10-19T09:14:50;2.90;;;0.70;;
50363;SDS011;36272;59.400;17.982;2022-10-19T09:19:57;1.17;;;0.52;;
50363;SDS011;36272;59.400;17.982;2022-10-19T09:25:16;1.60;;;0.50;;
50363;SDS011;36272;59.400;17.982;2022-10-19T09:30:21;1.85;;;0.63;;
50363;SDS011;36272;59.400;17.982;2022-10-19T09:40:32;3.35;;;0.60;;
50363;SDS011;36272;59.400;17.982;2022-10-19T09:45:37;2.50;;;0.73;;
50363;SDS011;36272;59.400;17.982;2022-10-19T09:50:48;1.90;;;0.40;;
50363;SDS011;36272;59.400;17.982;2022-10-19T09:56:07;4.95;;;0.68;;
50363;SDS011;36272;59.400;17.982;2022-10-19T10:01:33;3.55;;;1.00;;
50363;SDS011;36272;59.400;17.982;2022-10-19T10:06:37;4.40;;;0.70;;
50363;SDS011;36272;59.400;17.982;2022-10-19T10:11:42;1.88;;;0.35;;
50363;SDS011;36272;59.400;17.982;2022-10-19T10:17:34;2.83;;;0.57;;
50363;SDS011;36272;59.400;17.982;2022-10-19T10:22:22;1.55;;;0.40;;
50363;SDS011;36272;59.400;17.982;2022-10-19T10:27:35;3.70;;;0.75;;
50363;SDS011;36272;59.400;17.982;2022-10-19T10:32:40;0.95;;;0.38;;
50363;SDS011;36272;59.400;17.982;2022-10-19T10:37:49;0.98;;;0.30;;
50363;SDS011;36272;59.400;17.982;2022-10-19T10:42:51;2.25;;;0.45;;
50363;SDS011;36272;59.400;17.982;2022-10-19T10:47:55;0.80;;;0.40;;
50363;SDS011;36272;59.400;17.982;2022-10-19T10:53:01;1.98;;;0.52;;
50363;SDS011;36272;59.400;17.982;2022-10-19T10:58:14;3.72;;;0.50;;
50363;SDS011;36272;59.400;17.982;2022-10-19T11:03:23;1.27;;;0.47;;
50363;SDS011;36272;59.400;17.982;2022-10-19T11:19:06;1.35;;;0.50;;
50363;SDS011;36272;59.400;17.982;2022-10-19T11:35:08;0.55;;;0.40;;
50363;SDS011;36272;59.400;17.982;2022-10-19T11:40:24;2.17;;;0.50;;
50363;SDS011;36272;59.400;17.982;2022-10-19T11:45:58;1.98;;;0.47;;
50363;SDS011;36272;59.400;17.982;2022-10-19T11:56:24;1.58;;;0.35;;
50363;SDS011;36272;59.400;17.982;2022-10-19T12:12:46;2.90;;;0.30;;
50363;SDS011;36272;59.400;17.982;2022-10-19T12:18:01;0.75;;;0.35;;
50363;SDS011;36272;59.400;17.982;2022-10-19T12:28:27;0.88;;;0.35;;
50363;SDS011;36272;59.400;17.982;2022-10-19T12:33:43;0.65;;;0.30;;
50363;SDS011;36272;59.400;17.982;2022-10-19T12:44:30;1.15;;;0.20;;
50363;SDS011;36272;59.400;17.982;2022-10-19T12:49:55;3.45;;;0.50;;
50363;SDS011;36272;59.400;17.982;2022-10-19T12:54:57;0.43;;;0.10;;
50363;SDS011;36272;59.400;17.982;2022-10-19T13:00:38;2.70;;;0.28;;
50363;SDS011;36272;59.400;17.982;2022-10-19T13:05:40;0.40;;;0.30;;
50363;SDS011;36272;59.400;17.982;2022-10-19T13:10:42;1.27;;;0.32;;
50363;SDS011;36272;59.400;17.982;2022-10-19T13:22:34;1.15;;;0.50;;
50363;SDS011;36272;59.400;17.982;2022-10-19T13:27:22;1.52;;;0.35;;
50363;SDS011;36272;59.400;17.982;2022-10-19T13:37:36;2.38;;;0.38;;
50363;SDS011;36272;59.400;17.982;2022-10-19T13:42:37;4.53;;;0.80;;
50363;SDS011;36272;59.400;17.982;2022-10-19T13:47:39;0.77;;;0.30;;
50363;SDS011;36272;59.400;17.982;2022-10-19T13:52:46;0.73;;;0.25;;
50363;SDS011;36272;59.400;17.982;2022-10-19T14:09:20;4.22;;;0.50;;
50363;SDS011;36272;59.400;17.982;2022-10-19T14:14:39;3.22;;;0.40;;
50363;SDS011;36272;59.400;17.982;2022-10-19T14:19:44;1.27;;;0.50;;
50363;SDS011;36272;59.400;17.982;2022-10-19T14:24:51;0.90;;;0.32;;
50363;SDS011;36272;59.400;17.982;2022-10-19T14:30:03;1.60;;;0.50;;
50363;SDS011;36272;59.400;17.982;2022-10-19T14:35:14;1.67;;;0.28;;
50363;SDS011;36272;59.400;17.982;2022-10-19T14:40:39;3.92;;;0.30;;
50363;SDS011;36272;59.400;17.982;2022-10-19T14:45:41;4.25;;;0.82;;
50363;SDS011;36272;59.400;17.982;2022-10-19T14:50:52;5.00;;;0.47;;
50363;SDS011;36272;59.400;17.982;2022-10-19T14:55:59;4.30;;;0.60;;
50363;SDS011;36272;59.400;17.982;2022-10-19T15:01:08;0.98;;;0.40;;
50363;SDS011;36272;59.400;17.982;2022-10-19T15:06:18;5.38;;;0.40;;
50363;SDS011;36272;59.400;17.982;2022-10-19T15:11:29;5.97;;;0.60;;
50363;SDS011;36272;59.400;17.982;2022-10-19T15:21:46;6.13;;;0.52;;
50363;SDS011;36272;59.400;17.982;2022-10-19T15:26:49;4.10;;;0.60;;
50363;SDS011;36272;59.400;17.982;2022-10-19T15:32:11;3.28;;;0.73;;
50363;SDS011;36272;59.400;17.982;2022-10-19T15:37:20;5.20;;;0.70;;
50363;SDS011;36272;59.400;17.982;2022-10-19T15:42:39;5.68;;;1.23;;
50363;SDS011;36272;59.400;17.982;2022-10-19T15:47:56;0.93;;;0.63;;
50363;SDS011;36272;59.400;17.982;2022-10-19T15:53:10;14.82;;;2.15;;
50363;SDS011;36272;59.400;17.982;2022-10-19T15:58:11;4.00;;;0.70;;
50363;SDS011;36272;59.400;17.982;2022-10-19T16:03:14;3.15;;;0.50;;
50363;SDS011;36272;59.400;17.982;2022-10-19T16:08:16;6.20;;;0.70;;
50363;SDS011;36272;59.400;17.982;2022-10-19T16:13:18;3.55;;;1.10;;
50363;SDS011;36272;59.400;17.982;2022-10-19T16:18:19;1.88;;;0.80;;
50363;SDS011;36272;59.400;17.982;2022-10-19T16:23:21;4.90;;;0.70;;
50363;SDS011;36272;59.400;17.982;2022-10-19T16:28:23;6.15;;;0.80;;
50363;SDS011;36272;59.400;17.982;2022-10-19T16:33:33;4.72;;;0.88;;
50363;SDS011;36272;59.400;17.982;2022-10-19T16:38:47;5.75;;;0.80;;
50363;SDS011;36272;59.400;17.982;2022-10-19T16:43:52;3.78;;;0.80;;
50363;SDS011;36272;59.400;17.982;2022-10-19T16:48:55;2.03;;;0.93;;
50363;SDS011;36272;59.400;17.982;2022-10-19T16:53:57;4.65;;;1.00;;
50363;SDS011;36272;59.400;17.982;2022-10-19T16:59:00;2.42;;;0.80;;
50363;SDS011;36272;59.400;17.982;2022-10-19T17:04:06;5.03;;;1.30;;
50363;SDS011;36272;59.400;17.982;2022-10-19T17:09:08;5.75;;;0.90;;
50363;SDS011;36272;59.400;17.982;2022-10-19T17:14:11;7.10;;;1.05;;
50363;SDS011;36272;59.400;17.982;2022-10-19T17:19:20;5.90;;;1.40;;
50363;SDS011;36272;59.400;17.982;2022-10-19T17:24:23;8.38;;;1.20;;
50363;SDS011;36272;59.400;17.982;2022-10-19T17:29:25;2.35;;;0.60;;
50363;SDS011;36272;59.400;17.982;2022-10-19T17:34:27;1.30;;;0.80;;
50363;SDS011;36272;59.400;17.982;2022-10-19T17:39:28;6.47;;;1.02;;
50363;SDS011;36272;59.400;17.982;2022-10-19T17:44:30;1.33;;;1.05;;
50363;SDS011;36272;59.400;17.982;2022-10-19T17:49:33;4.93;;;0.82;;
50363;SDS011;36272;59.400;17.982;2022-10-19T17:54:35;3.22;;;0.70;;
50363;SDS011;36272;59.400;17.982;2022-10-19T17:59:37;2.17;;;0.63;;
50363;SDS011;36272;59.400;17.982;2022-10-19T18:04:39;3.35;;;0.90;;
50363;SDS011;36272;59.400;17.982;2022-10-19T18:09:41;1.30;;;0.47;;
50363;SDS011;36272;59.400;17.982;2022-10-19T18:14:43;3.42;;;0.80;;
50363;SDS011;36272;59.400;17.982;2022-10-19T18:19:45;1.65;;;0.85;;
50363;SDS011;36272;59.400;17.982;2022-10-19T18:37:14;3.65;;;0.50;;
50363;SDS011;36272;59.400;17.982;2022-10-19T18:48:31;1.60;;;0.75;;
50363;SDS011;36272;59.400;17.982;2022-10-19T19:39:13;4.15;;;1.25;;
50363;SDS011;36272;59.400;17.982;2022-10-19T19:44:24;3.17;;;0.60;;
50363;SDS011;36272;59.400;17.982;2022-10-19T19:49:29;2.17;;;0.90;;
50363;SDS011;36272;59.400;17.982;2022-10-19T19:54:42;5.32;;;1.30;;
50363;SDS011;36272;59.400;17.982;2022-10-19T19:59:43;3.15;;;0.95;;
50363;SDS011;36272;59.400;17.982;2022-10-19T20:04:45;4.57;;;1.27;;
50363;SDS011;36272;59.400;17.982;2022-10-19T20:09:47;5.03;;;1.00;;
50363;SDS011;36272;59.400;17.982;2022-10-19T20:14:48;3.25;;;1.00;;
50363;SDS011;36272;59.400;17.982;2022-10-19T20:19:50;1.48;;;0.65;;
50363;SDS011;36272;59.400;17.982;2022-10-19T20:24:51;2.42;;;0.70;;
50363;SDS011;36272;59.400;17.982;2022-10-19T20:29:53;3.30;;;1.02;;
50363;SDS011;36272;59.400;17.982;2022-10-19T20:34:58;2.97;;;1.20;;
50363;SDS011;36272;59.400;17.982;2022-10-19T20:40:06;3.53;;;1.50;;
50363;SDS011;36272;59.400;17.982;2022-10-19T20:45:11;3.00;;;0.98;;
50363;SDS011;36272;59.400;17.982;2022-10-19T20:50:13;2.20;;;0.82;;
50363;SDS011;36272;59.400;17.982;2022-10-19T20:55:16;2.30;;;1.08;;
50363;SDS011;36272;59.400;17.982;2022-10-19T21:00:23;4.93;;;1.20;;
50363;SDS011;36272;59.400;17.982;2022-10-19T21:05:25;9.55;;;1.23;;
50363;SDS011;36272;59.400;17.982;2022-10-19T21:10:31;3.22;;;1.08;;
50363;SDS011;36272;59.400;17.982;2022-10-19T21:15:33;5.93;;;1.50;;
50363;SDS011;36272;59.400;17.982;2022-10-19T21:20:34;6.40;;;1.80;;
50363;SDS011;36272;59.400;17.982;2022-10-19T21:25:36;3.97;;;1.30;;
50363;SDS011;36272;59.400;17.982;2022-10-19T21:30:38;3.50;;;1.70;;
50363;SDS011;36272;59.400;17.982;2022-10-19T21:35:39;3.15;;;1.40;;
50363;SDS011;36272;59.400;17.982;2022-10-19T21:40:41;4.82;;;1.60;;
50363;SDS011;36272;59.400;17.982;2022-10-19T21:45:42;3.33;;;1.80;;
50363;SDS011;36272;59.400;17.982;2022-10-19T21:50:44;6.93;;;1.88;;
50363;SDS011;36272;59.400;17.982;2022-10-19T21:55:46;7.53;;;1.90;;
50363;SDS011;36272;59.400;17.982;2022-10-19T22:00:48;3.58;;;1.58;;
50363;SDS011;36272;59.400;17.982;2022-10-19T22:05:50;2.47;;;1.20;;
50363;SDS011;36272;59.400;17.982;2022-10-19T22:10:52;2.95;;;1.05;;
50363;SDS011;36272;59.400;17.982;2022-10-19T22:15:54;5.65;;;1.13;;
50363;SDS011;36272;59.400;17.982;2022-10-19T22:20:55;3.88;;;0.77;;
50363;SDS011;36272;59.400;17.982;2022-10-19T22:25:57;2.90;;;1.02;;
50363;SDS011;36272;59.400;17.982;2022-10-19T22:30:59;5.28;;;1.10;;
50363;SDS011;36272;59.400;17.982;2022-10-19T22:36:02;1.70;;;1.10;;
50363;SDS011;36272;59.400;17.982;2022-10-19T22:41:05;2.65;;;1.02;;
50363;SDS011;36272;59.400;17.982;2022-10-19T22:46:06;2.53;;;1.10;;
50363;SDS011;36272;59.400;17.982;2022-10-19T22:51:08;3.45;;;1.15;;
50363;SDS011;36272;59.400;17.982;2022-10-19T22:56:10;5.65;;;0.90;;
50363;SDS011;36272;59.400;17.982;2022-10-19T23:01:13;1.27;;;0.73;;
50363;SDS011;36272;59.400;17.982;2022-10-19T23:18:12;2.92;;;0.80;;
50363;SDS011;36272;59.400;17.982;2022-10-19T23:23:13;3.38;;;1.10;;
50363;SDS011;36272;59.400;17.982;2022-10-19T23:28:15;1.88;;;0.80;;
50363;SDS011;36272;59.400;17.982;2022-10-19T23:33:17;3.45;;;0.90;;
50363;SDS011;36272;59.400;17.982;2022-10-19T23:38:18;3.85;;;1.25;;
50363;SDS011;36272;59.400;17.982;2022-10-19T23:43:20;3.75;;;1.10;;
50363;SDS011;36272;59.400;17.982;2022-10-19T23:48:22;3.17;;;1.05;;
50363;SDS011;36272;59.400;17.982;2022-10-19T23:53:24;2.85;;;1.23;;
50363;SDS011;36272;59.400;17.982;2022-10-19T23:58:27;4.40;;;1.20;;
